LEABGMTA

Guest
Details From LEAB - Albacete
To GMTA - CHERIF EL IDRISSI
Flight Number -
Tags generated
Created
Modified
Stats Distance 255 nm / 472 km
Max Altitude 30,400 ft / 9,266 m
Waypoints 7
Social Downloads 0
Likes 0
Share VATSIM

Download

Looking for another format? Having issues loading an existing format? Contact us
Advertisement - Login to hide

Notes

Basic altitude profile: - Ascent Rate: 2500ft/min - Ascent Speed: 250kts - Cruise Altitude: 35000ft - Cruise Speed: 420kts - Descent Rate: 1500ft/min - Descent Speed: 250kts Options: - Use NATs: yes - Use PACOTS: yes - Use low airways: yes - Use high airways: yes

Route

LEAB VALVE G53 AMR G850 ALM GMTA

ID Type Via Altitude Latitude Longitude Leg Dist Tot Dist Heading (true) Name
O LEAB APT - 0 ft / 0 m 38.94853˚ -1.86350˚ - 0 nm - Albacete
VALVE FIX - 30,400 ft / 9,266 m 37.18314˚ -2.28047˚ 107 nm 107 nm 191° / 190° -
ONDAL FIX G53 (AWY-LO) 23,500 ft / 7,163 m 37.05833˚ -2.27294˚ 7 nm 115 nm 177° / 177° -
AMR VOR G53 (AWY-LO) 23,500 ft / 7,163 m 36.83317˚ -2.25942˚ 13 nm 128 nm 177° / 177° ALMERIA VOR-DME
BERUM FIX G850 (AWY-LO) 10,600 ft / 3,231 m 35.83333˚ -3.23583˚ 76 nm 205 nm 218° / 218° -
ALM VOR G850 (AWY-LO) 8,500 ft / 2,591 m 35.19108˚ -3.84173˚ 48 nm 253 nm 218° / 217° AL HOCEIMA VOR-DME
O GMTA APT - 0 ft / 0 m 35.17730˚ -3.83956˚ 0 nm 254 nm 173° / 173° CHERIF EL IDRISSI

Altitude Profile

Advertisement - Login to hide

Weather


0- 5 10 15 20 25 30 35+ Temperature / ° C

Clouds and Precipitation
Forecast for 2017-12-17 00:00 UTC. Updated 2 hours ago

Ground ~20,000 ft ~40,000 ft Winds

LEAB

Details ICAO LEAB
Name Albacete
Region Spain
Timezone Europe/Madrid (UTC+1.0)
Stats Elevation 2,301 ft / 701 m (AMSL)
Location 38.948527° -1.863500°
Runways 1
Magnetic Variation 0.168° W

METAR

LEAB 170100Z 31004KT CAVOK M01/M02 Q1025 NOSIG

Decode

TAF

Not found

Departure Runways

ID Width Length Bearing (true) Bearing (mag) Surface Threshold Offset Overrun Length
09 197 ft / 60 m 8,839 ft / 2,694 m 87.36° 87.53° Asphalt 0 ft / 0 m 1,247 ft / 380 m
27 197 ft / 60 m 8,839 ft / 2,694 m 267.38° 267.55° Asphalt 0 ft / 0 m 1,247 ft / 380 m

GMTA

Details ICAO GMTA (AHU)
Name CHERIF EL IDRISSI
Region Morocco
Timezone Africa/Casablanca (UTC+0.0)
Stats Elevation 95 ft / 29 m (AMSL)
Location 35.177296° -3.839555°
Runways 1
Magnetic Variation 0.695° W

METAR

GMTA 170100Z 19004KT 9999 FEW016 BKN033 10/10 Q1022 NOSIG

Decode

TAF

TAF GMTA 162300Z 1623/1706 16006KT 8000 FEW016 SCT080

Decode

Destination Runways

ID Width Length Bearing (true) Bearing (mag) Surface Threshold Offset Overrun Length
18 148 ft / 45 m 8,234 ft / 2,510 m 172.65° 173.34° Asphalt 0 ft / 0 m 0 ft / 0 m
36 148 ft / 45 m 8,234 ft / 2,510 m 352.65° 353.34° Asphalt 0 ft / 0 m 0 ft / 0 m